Time;durP1;ratioP1;P1;durP2;ratioP2;P2;SDS_P1;SDS_P2;PMS_P1;PMS_P2;Temp;Humidity;BMP_temperature;BMP_pressure;BME280_temperature;BME280_humidity;BME280_pressure;Samples;Min_cycle;Max_cycle;Signal;HPM_P1;HPM_P2
2023/07/08 00:00:05;;;;;;;17.20;11.30;;;;;;;12.35;80.23;99511.75;137214;1274;22512;-83
2023/07/08 00:03:08;;;;;;;17.30;10.60;;;;;;;12.35;80.60;99509.48;137234;1273;22192;-85
2023/07/08 00:06:10;;;;;;;15.90;11.20;;;;;;;12.29;80.92;99504.69;137468;1273;24912;-84
2023/07/08 00:09:15;;;;;;;23.60;11.70;;;;;;;12.25;81.34;99507.57;137032;1273;25403;-84
2023/07/08 00:12:17;;;;;;;24.30;11.50;;;;;;;12.23;81.61;99505.63;136811;1258;22173;-86
2023/07/08 00:15:23;;;;;;;16.20;10.60;;;;;;;12.15;81.88;99504.09;137349;1273;22763;-86
2023/07/08 00:18:25;;;;;;;18.30;11.30;;;;;;;12.06;82.34;99506.73;137153;1273;22530;-84
2023/07/08 00:21:28;;;;;;;17.60;10.60;;;;;;;11.99;82.61;99512.00;137525;1273;22528;-84
2023/07/08 00:24:31;;;;;;;22.70;11.40;;;;;;;11.92;83.01;99513.13;137218;1273;22290;-85
2023/07/08 00:27:34;;;;;;;13.90;10.70;;;;;;;11.88;83.19;99509.89;137037;1272;22521;-83
2023/07/08 00:30:36;;;;;;;17.80;10.60;;;;;;;11.84;83.49;99511.77;137481;1272;22184;-84
2023/07/08 00:33:39;;;;;;;14.70;10.10;;;;;;;11.80;83.34;99509.77;137486;1272;22260;-84
2023/07/08 00:36:41;;;;;;;21.20;10.50;;;;;;;11.77;83.80;99510.73;137561;1272;22317;-85
2023/07/08 00:39:44;;;;;;;17.00;10.10;;;;;;;11.74;84.13;99512.42;137341;1273;22226;-84
2023/07/08 00:42:47;;;;;;;15.40;10.90;;;;;;;11.68;84.24;99514.06;137512;1273;22668;-85
2023/07/08 00:45:49;;;;;;;16.40;10.90;;;;;;;11.63;84.49;99510.48;137536;1273;22333;-85
2023/07/08 00:48:52;;;;;;;14.60;10.40;;;;;;;11.59;84.69;99511.11;137401;1273;22699;-84
2023/07/08 00:51:55;;;;;;;15.90;10.40;;;;;;;11.54;84.92;99507.52;137336;1267;22542;-85
2023/07/08 00:55:00;;;;;;;;;;;;;;;11.50;85.17;99498.21;137351;1273;23102;-86
2023/07/08 00:58:02;;;;;;;13.40;10.40;;;;;;;11.45;85.38;99497.59;137217;1272;22573;-83
2023/07/08 01:01:04;;;;;;;30.50;11.30;;;;;;;11.40;85.46;99500.45;137228;1272;22563;-86
2023/07/08 01:04:07;;;;;;;15.70;10.20;;;;;;;11.36;85.51;99498.84;137271;1272;22630;-85
2023/07/08 01:07:09;;;;;;;16.40;10.80;;;;;;;11.32;85.45;99494.73;137525;1273;22177;-85
2023/07/08 01:10:12;;;;;;;11.60;10.20;;;;;;;11.29;85.52;99494.48;137561;1257;22243;-84
2023/07/08 01:13:14;;;;;;;14.00;9.40;;;;;;;11.24;85.64;99496.29;137146;1272;22888;-86
2023/07/08 01:16:17;;;;;;;22.40;11.20;;;;;;;11.24;85.89;99494.38;137430;1272;22583;-84
2023/07/08 01:19:20;;;;;;;16.70;11.10;;;;;;;11.18;85.88;99495.48;137613;1272;22266;-85
2023/07/08 01:22:32;;;;;;;14.00;9.90;;;;;;;11.18;85.93;99496.69;137560;1272;22539;-86
2023/07/08 01:25:36;;;;;;;18.80;10.70;;;;;;;11.13;85.96;99500.60;137147;1272;22544;-87
2023/07/08 01:28:39;;;;;;;13.00;9.60;;;;;;;11.05;86.18;99500.79;137321;1260;22201;-84
2023/07/08 01:31:48;;;;;;;17.50;10.50;;;;;;;10.99;86.06;99502.75;137406;1272;22548;-87
2023/07/08 01:35:00;;;;;;;11.10;10.00;;;;;;;10.90;86.47;99504.83;137138;1272;22591;-86
2023/07/08 01:38:04;;;;;;;12.00;10.00;;;;;;;10.88;86.64;99505.31;137478;1273;22177;-87
2023/07/08 01:41:07;;;;;;;13.70;10.00;;;;;;;10.83;86.39;99502.78;137142;1273;22606;-86
2023/07/08 01:44:10;;;;;;;11.30;10.20;;;;;;;10.79;86.59;99500.08;137324;1273;22551;-85
2023/07/08 01:47:12;;;;;;;20.10;10.80;;;;;;;10.73;86.75;99502.74;137301;1273;22566;-84
2023/07/08 01:50:15;;;;;;;26.70;10.80;;;;;;;10.70;86.78;99499.17;137388;1273;22693;-85
2023/07/08 01:53:17;;;;;;;13.20;9.80;;;;;;;10.69;87.01;99498.11;136968;1273;22638;-84
2023/07/08 01:56:23;;;;;;;14.60;10.30;;;;;;;10.67;86.98;99495.98;137210;1273;22285;-83
2023/07/08 01:59:26;;;;;;;15.60;10.10;;;;;;;10.64;87.02;99499.92;137039;1273;22592;-85
2023/07/08 02:02:29;;;;;;;61.80;11.30;;;;;;;10.59;87.22;99497.39;137158;1273;22709;-85
2023/07/08 02:05:31;;;;;;;17.70;9.90;;;;;;;10.53;87.15;99497.23;137423;1273;22541;-85
2023/07/08 02:08:36;;;;;;;13.30;9.80;;;;;;;10.46;87.32;99498.64;137500;1273;22376;-85
2023/07/08 02:11:39;;;;;;;12.30;9.20;;;;;;;10.40;87.64;99500.94;137342;1273;22198;-83
2023/07/08 02:14:41;;;;;;;38.50;11.40;;;;;;;10.40;87.58;99503.55;137451;1272;22294;-85
2023/07/08 02:17:44;;;;;;;46.30;12.30;;;;;;;10.37;87.66;99499.27;137640;1273;22216;-85
2023/07/08 02:20:46;;;;;;;15.50;9.40;;;;;;;10.32;87.67;99497.23;137593;1273;22600;-84
2023/07/08 02:23:49;;;;;;;15.30;10.00;;;;;;;10.26;87.89;99497.63;137521;1273;22230;-84
2023/07/08 02:26:54;;;;;;;13.90;10.20;;;;;;;10.23;88.20;99493.73;137315;1273;22796;-86
2023/07/08 02:29:56;;;;;;;13.00;9.00;;;;;;;10.23;88.44;99496.52;137252;1273;22225;-86
2023/07/08 02:32:59;;;;;;;13.50;9.50;;;;;;;10.20;88.33;99498.54;137063;1273;22226;-84
2023/07/08 02:36:02;;;;;;;11.90;9.50;;;;;;;10.20;88.67;99491.41;137342;1273;22241;-85
2023/07/08 02:39:13;;;;;;;16.90;9.80;;;;;;;10.20;88.60;99497.50;136684;1272;22566;-85
2023/07/08 02:42:16;;;;;;;12.10;10.00;;;;;;;10.23;88.73;99494.08;136961;1273;22529;-85
2023/07/08 02:45:18;;;;;;;20.50;10.20;;;;;;;10.23;88.75;99497.55;137355;1273;22258;-86
2023/07/08 02:48:24;;;;;;;11.20;10.00;;;;;;;10.19;88.34;99501.45;137107;1273;22963;-85
2023/07/08 02:51:26;;;;;;;245.00;21.50;;;;;;;10.17;88.37;99504.52;137328;1272;22391;-85
2023/07/08 02:54:29;;;;;;;14.10;9.10;;;;;;;10.19;88.59;99504.25;137521;1265;22701;-85
2023/07/08 02:57:34;;;;;;;63.20;11.40;;;;;;;10.22;88.36;99505.37;137616;1272;22155;-85
2023/07/08 03:00:37;;;;;;;13.60;9.40;;;;;;;10.28;88.53;99502.72;137528;1273;22204;-85
2023/07/08 03:03:39;;;;;;;11.40;9.20;;;;;;;10.31;88.40;99504.71;137515;1273;22466;-85
2023/07/08 03:06:42;;;;;;;10.10;9.10;;;;;;;10.33;88.16;99508.58;137521;1272;22189;-86
2023/07/08 03:09:44;;;;;;;34.20;10.30;;;;;;;10.36;88.05;99512.30;137376;1273;22196;-85
2023/07/08 03:12:47;;;;;;;186.60;20.30;;;;;;;10.37;87.95;99518.92;137492;1273;22265;-85
2023/07/08 03:15:49;;;;;;;11.20;8.70;;;;;;;10.39;87.84;99514.80;137366;1272;22269;-85
2023/07/08 03:18:52;;;;;;;83.30;14.50;;;;;;;10.40;87.72;99519.05;137248;1273;22514;-85
2023/07/08 03:21:55;;;;;;;17.90;9.00;;;;;;;10.43;87.88;99514.93;137347;1273;22668;-85
2023/07/08 03:24:57;;;;;;;11.20;8.60;;;;;;;10.47;87.88;99512.08;136999;1272;23683;-84
2023/07/08 03:28:00;;;;;;;212.20;21.00;;;;;;;10.52;87.97;99511.31;137383;1273;22239;-85
2023/07/08 03:31:02;;;;;;;16.30;9.20;;;;;;;10.60;88.10;99513.92;137289;1273;22293;-86
2023/07/08 03:34:05;;;;;;;10.10;8.50;;;;;;;10.68;87.94;99514.96;137228;1273;22221;-85
2023/07/08 03:37:11;;;;;;;10.00;8.00;;;;;;;10.69;87.81;99510.29;136952;1273;22634;-84
2023/07/08 03:40:14;;;;;;;9.30;8.20;;;;;;;10.73;87.96;99510.04;136919;1273;22596;-85
2023/07/08 03:43:18;;;;;;;11.70;8.50;;;;;;;10.79;88.26;99509.99;136741;1273;22757;-85
2023/07/08 03:46:24;;;;;;;11.80;7.50;;;;;;;10.84;88.25;99509.93;136513;1273;22536;-85
2023/07/08 03:49:30;;;;;;;10.50;8.10;;;;;;;10.91;88.14;99505.55;136926;1273;22604;-86
2023/07/08 03:52:35;;;;;;;10.10;7.70;;;;;;;10.97;88.27;99509.15;136747;1273;22629;-84
2023/07/08 03:55:38;;;;;;;10.50;8.30;;;;;;;11.04;88.53;99510.70;136863;1273;22529;-83
2023/07/08 03:58:40;;;;;;;10.60;7.40;;;;;;;11.13;88.93;99510.18;136524;1269;22549;-84
2023/07/08 04:01:43;;;;;;;8.80;7.90;;;;;;;11.22;89.07;99510.54;137527;1273;22306;-85
2023/07/08 04:04:46;;;;;;;10.10;8.80;;;;;;;11.36;89.16;99511.02;137257;1273;22537;-84
2023/07/08 04:07:49;;;;;;;10.00;8.30;;;;;;;11.51;89.22;99504.85;136978;1273;22643;-85
2023/07/08 04:10:51;;;;;;;9.60;8.60;;;;;;;11.68;89.58;99506.56;137016;1273;22568;-84
2023/07/08 04:14:09;;;;;;;10.60;8.00;;;;;;;11.85;89.44;99504.44;136907;1273;22629;-85
2023/07/08 04:17:14;;;;;;;153.50;15.20;;;;;;;12.08;89.53;99500.30;137048;1272;25918;-86
2023/07/08 04:20:18;;;;;;;17.00;8.90;;;;;;;12.34;89.41;99499.52;137262;1272;22318;-85
2023/07/08 04:23:20;;;;;;;9.60;7.50;;;;;;;12.63;89.36;99504.30;137221;1272;22390;-83
2023/07/08 04:26:28;;;;;;;9.80;7.20;;;;;;;12.92;89.18;99501.38;136817;1272;22536;-86
2023/07/08 04:29:36;;;;;;;8.80;7.90;;;;;;;13.18;88.55;99501.23;137130;1273;22531;-85
2023/07/08 04:32:44;;;;;;;59.30;10.40;;;;;;;13.47;88.05;99495.96;137464;1273;22233;-83
2023/07/08 04:35:48;;;;;;;12.80;7.50;;;;;;;13.74;87.91;99497.99;137318;1272;22248;-86
2023/07/08 04:38:51;;;;;;;11.80;7.30;;;;;;;14.06;87.55;99498.48;137532;1273;22228;-86
2023/07/08 04:41:53;;;;;;;10.50;7.70;;;;;;;14.40;86.94;99497.35;137237;1273;22174;-86
2023/07/08 04:44:57;;;;;;;99.60;13.80;;;;;;;14.73;85.98;99497.58;137286;1271;22527;-83
2023/07/08 04:48:08;;;;;;;33.30;9.20;;;;;;;14.99;85.12;99493.88;136961;1273;22539;-85
2023/07/08 04:51:10;;;;;;;15.20;7.80;;;;;;;15.27;85.05;99488.72;137418;1273;22520;-86
2023/07/08 04:54:16;;;;;;;12.90;7.40;;;;;;;15.60;85.20;99490.95;137309;1273;22139;-84
2023/07/08 04:57:20;;;;;;;12.80;7.70;;;;;;;15.93;84.72;99487.50;137244;1273;23190;-85
2023/07/08 05:00:24;;;;;;;8.80;7.90;;;;;;;16.22;83.63;99489.61;136931;1272;22254;-84
2023/07/08 05:03:27;;;;;;;11.40;7.70;;;;;;;16.49;82.93;99487.84;137173;1273;22581;-86
2023/07/08 05:06:30;;;;;;;13.50;7.40;;;;;;;16.77;82.07;99494.15;137175;1273;22991;-85
2023/07/08 05:09:36;;;;;;;8.00;7.10;;;;;;;17.00;81.60;99496.36;137216;1273;23034;-84
2023/07/08 05:12:39;;;;;;;10.80;7.70;;;;;;;17.33;82.00;99496.04;137374;1272;22401;-85
2023/07/08 05:15:42;;;;;;;10.20;8.10;;;;;;;17.73;82.02;99496.92;137374;1273;22227;-83
2023/07/08 05:18:44;;;;;;;14.20;9.80;;;;;;;18.09;81.12;99495.42;137595;1273;22460;-82
2023/07/08 05:21:48;;;;;;;18.20;11.10;;;;;;;18.41;80.41;99496.05;137465;1272;22248;-83
2023/07/08 05:24:50;;;;;;;14.50;10.60;;;;;;;18.67;79.96;99493.34;137521;1271;22429;-84
2023/07/08 05:27:53;;;;;;;20.40;13.60;;;;;;;18.97;79.77;99493.55;137530;1272;22247;-83
2023/07/08 05:30:56;;;;;;;86.00;15.50;;;;;;;19.24;77.84;99487.96;137616;1273;22218;-83
2023/07/08 05:33:58;;;;;;;230.40;35.40;;;;;;;19.52;76.83;99491.83;137462;1272;22808;-82
2023/07/08 05:37:01;;;;;;;24.30;14.90;;;;;;;19.83;76.63;99490.34;137577;1272;22167;-82
2023/07/08 05:40:04;;;;;;;23.40;16.30;;;;;;;20.10;76.12;99489.73;137537;1272;22250;-82
2023/07/08 05:43:07;;;;;;;24.90;16.30;;;;;;;20.45;75.11;99490.05;137578;1271;22322;-82
2023/07/08 05:46:09;;;;;;;23.50;15.00;;;;;;;20.75;74.35;99486.52;137475;1273;22354;-85
2023/07/08 05:49:12;;;;;;;26.10;17.30;;;;;;;21.05;73.10;99478.86;137492;1273;22298;-84
2023/07/08 05:52:14;;;;;;;28.80;18.50;;;;;;;21.35;71.22;99474.00;137588;1273;22270;-83
2023/07/08 05:55:17;;;;;;;144.30;26.30;;;;;;;21.55;69.01;99473.19;137414;1273;22233;-82
2023/07/08 05:58:19;;;;;;;15.60;11.10;;;;;;;21.87;67.67;99469.47;137488;1273;22282;-83
2023/07/08 06:01:21;;;;;;;12.10;8.70;;;;;;;22.16;66.51;99471.61;137509;1273;22229;-83
2023/07/08 06:04:24;;;;;;;37.80;10.10;;;;;;;22.40;65.39;99471.02;137039;1273;22559;-83
2023/07/08 06:07:26;;;;;;;16.00;7.10;;;;;;;22.65;63.16;99469.30;137071;1273;22438;-83
2023/07/08 06:10:31;;;;;;;11.70;5.50;;;;;;;23.09;60.57;99468.45;137457;1273;22343;-84
2023/07/08 06:13:34;;;;;;;89.20;13.00;;;;;;;23.52;59.01;99471.82;137499;1273;22359;-85
2023/07/08 06:16:36;;;;;;;8.30;5.20;;;;;;;23.78;57.33;99470.64;137470;1273;22248;-84
2023/07/08 06:19:39;;;;;;;8.10;5.40;;;;;;;24.13;55.74;99473.58;137364;1273;22565;-82
2023/07/08 06:22:41;;;;;;;4.80;4.20;;;;;;;24.46;54.47;99474.15;137500;1273;22137;-85
2023/07/08 06:25:45;;;;;;;50.00;9.20;;;;;;;24.77;53.15;99473.05;137426;1273;23016;-83
2023/07/08 06:28:48;;;;;;;3.90;3.60;;;;;;;25.07;51.89;99470.91;137388;1273;22984;-84
2023/07/08 06:31:50;;;;;;;5.20;3.70;;;;;;;25.37;49.84;99470.16;137448;1273;22560;-83
2023/07/08 06:34:52;;;;;;;3.90;3.10;;;;;;;25.53;49.07;99471.50;137514;1273;22225;-83
2023/07/08 06:37:55;;;;;;;3.10;2.80;;;;;;;25.77;47.17;99472.55;137462;1273;22214;-83
2023/07/08 06:40:58;;;;;;;4.00;2.70;;;;;;;26.03;46.10;99467.20;137484;1273;22224;-83
2023/07/08 06:44:00;;;;;;;4.20;2.80;;;;;;;26.25;45.36;99464.16;137442;1273;22232;-84
2023/07/08 06:47:05;;;;;;;221.70;14.60;;;;;;;26.46;44.06;99459.71;137517;1273;22711;-85
2023/07/08 07:23:13;;;;;;;2.70;2.20;;;;;;;28.02;34.34;99462.92;132549;1308;545353;-85
2023/07/08 07:26:15;;;;;;;2.50;2.10;;;;;;;27.85;34.59;99465.01;135724;1288;22573;-84
2023/07/08 07:29:22;;;;;;;5.60;2.50;;;;;;;27.92;34.57;99462.90;135965;1288;22585;-85
2023/07/08 07:32:26;;;;;;;2.60;2.40;;;;;;;28.12;34.13;99459.03;136226;1289;22221;-85
2023/07/08 07:35:29;;;;;;;2.70;2.10;;;;;;;28.33;33.66;99459.96;135938;1286;241087;-85
2023/07/08 07:38:30;;;;;;;4.10;2.10;;;;;;;28.61;32.81;99457.30;136100;1286;22353;-84
2023/07/08 07:41:31;;;;;;;2.30;2.10;;;;;;;28.80;32.61;99458.45;136397;1286;22332;-84
2023/07/08 07:44:32;;;;;;;3.50;2.00;;;;;;;28.82;31.82;99464.44;136062;1286;22256;-84
2023/07/08 07:47:34;;;;;;;3.50;2.00;;;;;;;28.83;32.07;99467.42;136039;1282;22597;-87
2023/07/08 07:50:38;;;;;;;2.30;2.10;;;;;;;28.77;30.97;99468.98;136913;1278;22935;-84
2023/07/08 07:53:39;;;;;;;4.60;2.10;;;;;;;28.64;29.99;99468.03;136834;1278;22287;-85
2023/07/08 07:56:43;;;;;;;2.10;2.00;;;;;;;28.45;29.69;99468.84;136665;1278;22596;-86
2023/07/08 07:59:45;;;;;;;2.10;1.90;;;;;;;28.39;30.79;99468.39;136943;1278;22563;-85
2023/07/08 08:02:48;;;;;;;2.40;2.10;;;;;;;28.43;30.46;99468.02;136648;1278;22272;-86
2023/07/08 08:05:50;;;;;;;5.80;2.60;;;;;;;28.46;30.85;99470.02;136403;1278;22553;-83
2023/07/08 08:08:51;;;;;;;2.30;2.10;;;;;;;28.58;30.78;99471.05;136930;1278;22571;-84
2023/07/08 08:11:54;;;;;;;2.30;2.10;;;;;;;28.63;30.51;99465.80;136816;1278;22239;-84
2023/07/08 08:14:56;;;;;;;2.30;2.10;;;;;;;28.84;30.73;99462.92;136633;1277;22541;-82
2023/07/08 08:17:59;;;;;;;2.30;2.10;;;;;;;29.06;30.37;99462.42;136926;1278;22208;-83
2023/07/08 08:21:01;;;;;;;2.30;2.10;;;;;;;29.16;29.84;99463.15;136914;1278;22959;-85
2023/07/08 08:24:02;;;;;;;2.40;2.10;;;;;;;29.30;29.40;99463.48;136906;1278;22551;-84
2023/07/08 08:27:03;;;;;;;3.50;2.00;;;;;;;29.48;28.61;99463.77;137113;1278;22303;-83
2023/07/08 08:30:04;;;;;;;2.30;2.20;;;;;;;29.60;28.21;99461.13;136903;1278;22340;-84
2023/07/08 08:33:05;;;;;;;2.60;2.20;;;;;;;29.80;28.34;99459.63;136725;1278;22331;-84
2023/07/08 08:36:07;;;;;;;3.20;2.00;;;;;;;29.98;27.97;99459.14;137205;1278;22287;-83
2023/07/08 08:39:08;;;;;;;2.80;2.20;;;;;;;30.16;28.19;99456.15;136958;1278;22259;-84
2023/07/08 08:42:09;;;;;;;5.90;1.90;;;;;;;30.14;28.30;99456.97;136907;1278;22433;-85
2023/07/08 08:45:13;;;;;;;2.30;1.90;;;;;;;29.97;27.80;99457.20;136933;1278;22301;-83
2023/07/08 08:48:15;;;;;;;3.40;2.20;;;;;;;29.82;28.01;99458.27;137050;1275;22722;-85
2023/07/08 08:51:16;;;;;;;2.40;2.20;;;;;;;29.83;28.19;99457.83;137270;1275;22466;-82
2023/07/08 08:54:17;;;;;;;2.70;2.40;;;;;;;30.01;27.81;99464.18;137185;1275;22546;-83
2023/07/08 08:57:18;;;;;;;3.60;2.70;;;;;;;29.90;27.72;99462.30;137123;1275;23184;-85
2023/07/08 09:00:20;;;;;;;6.20;2.10;;;;;;;29.73;27.73;99458.77;137296;1275;22330;-83
2023/07/08 09:03:21;;;;;;;2.40;2.20;;;;;;;29.61;27.62;99458.20;137256;1272;22550;-84
2023/07/08 09:06:23;;;;;;;2.40;2.10;;;;;;;29.49;27.27;99461.35;137227;1268;22245;-83
2023/07/08 09:09:24;;;;;;;3.50;2.40;;;;;;;29.39;27.96;99461.15;137192;1275;22210;-84
2023/07/08 09:12:25;;;;;;;2.60;2.40;;;;;;;29.38;27.70;99461.39;137078;1275;22365;-83
2023/07/08 09:15:26;;;;;;;2.80;2.30;;;;;;;29.35;28.21;99461.95;137289;1275;22754;-84
2023/07/08 09:18:27;;;;;;;1.90;1.80;;;;;;;29.47;27.95;99454.14;137293;1275;22312;-84
2023/07/08 09:21:28;;;;;;;3.30;2.10;;;;;;;29.51;27.91;99450.67;137291;1275;22281;-84
2023/07/08 09:24:29;;;;;;;4.60;2.00;;;;;;;29.64;27.45;99451.04;137190;1275;22343;-84
2023/07/08 09:27:31;;;;;;;3.00;2.30;;;;;;;29.77;27.32;99447.77;137235;1275;22296;-85
2023/07/08 09:30:32;;;;;;;2.90;2.10;;;;;;;29.69;27.00;99449.45;137249;1275;22540;-82
2023/07/08 09:33:37;;;;;;;8.40;2.30;;;;;;;29.72;27.41;99450.73;137074;1275;22540;-84
2023/07/08 09:36:38;;;;;;;6.80;2.50;;;;;;;29.86;27.12;99454.11;137159;1275;22564;-83
2023/07/08 09:39:39;;;;;;;3.50;2.10;;;;;;;29.92;26.79;99447.84;137207;1275;22193;-84
2023/07/08 09:42:40;;;;;;;2.20;2.00;;;;;;;29.92;26.84;99445.81;137204;1275;22131;-83
2023/07/08 09:45:42;;;;;;;2.10;1.90;;;;;;;30.08;27.04;99443.86;137219;1275;22438;-84
2023/07/08 09:48:43;;;;;;;2.40;2.10;;;;;;;30.31;26.73;99443.22;136981;1271;22985;-85
2023/07/08 09:51:44;;;;;;;2.10;1.90;;;;;;;30.45;25.95;99438.61;136946;1275;22553;-83
2023/07/08 09:54:46;;;;;;;3.60;2.40;;;;;;;30.42;26.04;99436.64;137026;1272;22509;-85
2023/07/08 09:57:47;;;;;;;2.00;1.80;;;;;;;30.52;26.30;99438.00;137236;1274;22565;-83
2023/07/08 10:00:48;;;;;;;4.10;2.40;;;;;;;30.60;25.99;99437.20;137273;1275;22260;-84
2023/07/08 10:03:49;;;;;;;2.30;2.10;;;;;;;30.39;26.45;99433.77;137302;1274;22876;-84
2023/07/08 10:06:52;;;;;;;15.50;2.60;;;;;;;30.50;26.63;99431.48;137215;1274;22884;-85
2023/07/08 10:09:54;;;;;;;2.10;2.00;;;;;;;30.77;26.51;99422.66;137378;1275;22203;-84
2023/07/08 10:12:55;;;;;;;3.70;2.10;;;;;;;30.91;26.39;99421.79;137371;1275;22629;-84
2023/07/08 10:15:56;;;;;;;4.30;2.20;;;;;;;30.97;26.61;99427.71;136996;1274;22221;-83
2023/07/08 10:18:57;;;;;;;4.90;2.30;;;;;;;30.79;25.80;99425.09;137172;1275;22190;-84
2023/07/08 10:21:58;;;;;;;2.70;2.40;;;;;;;30.40;25.39;99426.36;137336;1275;22276;-84
2023/07/08 10:24:59;;;;;;;2.20;2.00;;;;;;;30.32;26.04;99425.40;137330;1275;22227;-84
2023/07/08 10:28:00;;;;;;;2.80;1.90;;;;;;;30.35;26.26;99421.60;137358;1275;22212;-85
2023/07/08 10:31:01;;;;;;;2.20;2.10;;;;;;;30.37;26.25;99419.70;136996;1275;22592;-83
2023/07/08 10:34:03;;;;;;;3.20;2.10;;;;;;;30.25;26.68;99417.52;136577;1275;22296;-83
2023/07/08 10:37:04;;;;;;;5.30;2.10;;;;;;;30.31;26.51;99417.52;137280;1274;22585;-83
2023/07/08 10:40:05;;;;;;;2.40;2.00;;;;;;;30.32;26.40;99412.10;137347;1274;22666;-83
2023/07/08 10:43:06;;;;;;;2.40;2.20;;;;;;;30.50;26.18;99409.24;137383;1275;22799;-84
2023/07/08 10:46:07;;;;;;;2.90;2.30;;;;;;;30.73;25.63;99410.20;137397;1275;22236;-84
2023/07/08 10:49:08;;;;;;;3.50;2.50;;;;;;;30.63;26.05;99412.98;137376;1275;22219;-83
2023/07/08 10:52:09;;;;;;;5.50;2.30;;;;;;;30.53;25.87;99409.77;137387;1275;22261;-84
2023/07/08 10:55:10;;;;;;;2.20;2.00;;;;;;;30.41;26.00;99406.17;137327;1275;22290;-85
2023/07/08 10:58:13;;;;;;;1.90;1.80;;;;;;;30.60;26.27;99398.75;137388;1275;22262;-84
2023/07/08 11:01:14;;;;;;;3.70;1.90;;;;;;;30.57;25.77;99404.17;137368;1275;22180;-83
2023/07/08 11:04:15;;;;;;;2.20;1.90;;;;;;;30.40;25.98;99403.56;137383;1275;22222;-84
2023/07/08 11:07:16;;;;;;;3.30;2.10;;;;;;;30.42;25.91;99392.45;137361;1275;22228;-84
2023/07/08 11:10:17;;;;;;;2.40;2.20;;;;;;;30.43;25.77;99392.23;137380;1275;22199;-85
2023/07/08 11:13:18;;;;;;;3.60;2.50;;;;;;;30.44;25.48;99390.89;137206;1275;22249;-85
2023/07/08 11:16:19;;;;;;;2.20;2.00;;;;;;;30.61;25.66;99387.17;137142;1275;22221;-84
2023/07/08 11:19:20;;;;;;;2.60;1.80;;;;;;;30.75;24.45;99384.57;137374;1275;22265;-84
2023/07/08 11:22:22;;;;;;;2.40;1.80;;;;;;;30.77;25.71;99387.30;137268;1275;22240;-82
2023/07/08 11:25:23;;;;;;;2.10;2.00;;;;;;;30.89;24.51;99384.94;137332;1275;22244;-83
2023/07/08 11:28:24;;;;;;;2.00;1.90;;;;;;;31.08;24.19;99379.05;137299;1275;22230;-84
2023/07/08 11:31:29;;;;;;;2.50;2.30;;;;;;;31.37;23.86;99374.35;137249;1274;22807;-84
2023/07/08 11:34:33;;;;;;;2.50;2.10;;;;;;;31.41;23.30;99369.23;137368;1275;22266;-83
2023/07/08 11:37:34;;;;;;;3.20;2.10;;;;;;;31.56;23.57;99374.54;137264;1275;23121;-84
2023/07/08 11:40:35;;;;;;;2.10;1.90;;;;;;;31.46;23.48;99371.78;137187;1267;22585;-85
2023/07/08 11:43:36;;;;;;;2.20;2.00;;;;;;;31.26;23.77;99368.96;137265;1275;22687;-86
2023/07/08 11:46:37;;;;;;;2.00;1.80;;;;;;;31.25;23.25;99366.34;137343;1275;22440;-84
2023/07/08 11:49:38;;;;;;;2.40;2.20;;;;;;;31.26;23.40;99365.16;137333;1275;22738;-83
2023/07/08 11:52:40;;;;;;;2.10;1.90;;;;;;;31.25;22.93;99368.64;137347;1275;22541;-85
2023/07/08 11:55:41;;;;;;;2.30;1.80;;;;;;;31.25;22.99;99362.91;137291;1275;22508;-85
2023/07/08 11:58:42;;;;;;;2.40;1.90;;;;;;;31.14;22.75;99360.35;137325;1275;22211;-84
2023/07/08 12:01:45;;;;;;;2.30;2.20;;;;;;;31.12;23.41;99363.66;137357;1275;22583;-84
2023/07/08 12:04:46;;;;;;;2.50;2.20;;;;;;;30.96;23.38;99360.59;137387;1275;22628;-85
2023/07/08 12:07:47;;;;;;;2.20;2.00;;;;;;;30.82;23.96;99360.57;137297;1274;22553;-85
2023/07/08 12:10:51;;;;;;;6.40;2.50;;;;;;;30.89;24.25;99358.66;137226;1274;22209;-83
2023/07/08 12:13:52;;;;;;;4.50;2.40;;;;;;;30.81;24.49;99357.58;137285;1264;22574;-84
2023/07/08 12:16:53;;;;;;;5.30;2.10;;;;;;;30.84;24.45;99356.11;137334;1274;22771;-84
2023/07/08 12:19:54;;;;;;;2.10;2.00;;;;;;;30.75;24.10;99353.30;136629;1274;22284;-84
2023/07/08 12:22:55;;;;;;;4.30;2.10;;;;;;;30.62;24.37;99354.64;137390;1274;23171;-84
2023/07/08 12:25:57;;;;;;;2.90;2.20;;;;;;;30.55;24.41;99353.05;137341;1274;22250;-83
2023/07/08 12:28:58;;;;;;;2.10;2.00;;;;;;;30.59;24.31;99347.27;137314;1274;22262;-84
2023/07/08 12:31:59;;;;;;;2.40;2.30;;;;;;;30.89;24.82;99345.21;137355;1274;22263;-84
2023/07/08 12:35:00;;;;;;;2.60;2.20;;;;;;;31.26;24.25;99344.64;137398;1274;22715;-84
2023/07/08 12:38:01;;;;;;;2.30;2.20;;;;;;;31.48;23.89;99342.88;137255;1274;22527;-84
2023/07/08 12:41:02;;;;;;;7.80;2.50;;;;;;;31.80;23.90;99342.69;137369;1274;22165;-85
2023/07/08 12:44:04;;;;;;;4.30;2.20;;;;;;;31.90;23.61;99351.73;137310;1274;22262;-85
2023/07/08 12:47:05;;;;;;;2.70;2.20;;;;;;;31.62;23.57;99346.82;137356;1274;22560;-86
2023/07/08 12:50:06;;;;;;;2.40;2.20;;;;;;;31.67;23.94;99341.27;137316;1274;22569;-85
2023/07/08 12:53:09;;;;;;;2.10;2.00;;;;;;;31.67;23.42;99340.34;137326;1274;22809;-86
2023/07/08 12:56:10;;;;;;;2.40;2.20;;;;;;;31.66;23.33;99330.48;137419;1274;22169;-85
2023/07/08 12:59:11;;;;;;;4.20;2.10;;;;;;;31.78;23.70;99331.34;137266;1275;22445;-85
2023/07/08 13:02:12;;;;;;;5.70;2.10;;;;;;;31.83;23.43;99331.17;137380;1275;22341;-85
2023/07/08 13:05:13;;;;;;;3.50;2.30;;;;;;;31.63;23.71;99331.27;137320;1275;22434;-84
2023/07/08 13:08:15;;;;;;;2.60;2.10;;;;;;;31.49;24.32;99331.65;137273;1274;22692;-83
2023/07/08 13:11:16;;;;;;;2.00;1.90;;;;;;;31.05;24.73;99329.11;137374;1275;22542;-85
2023/07/08 13:14:17;;;;;;;3.10;2.30;;;;;;;30.88;25.34;99325.86;137358;1275;22239;-84
2023/07/08 13:17:18;;;;;;;2.40;2.10;;;;;;;31.16;24.90;99319.27;137358;1274;22236;-86
2023/07/08 13:20:19;;;;;;;2.80;2.40;;;;;;;31.02;25.07;99314.14;137362;1275;22269;-86
2023/07/08 13:23:21;;;;;;;2.30;2.10;;;;;;;31.22;25.01;99312.00;137328;1274;22369;-85
2023/07/08 13:26:22;;;;;;;3.80;2.00;;;;;;;31.71;25.01;99314.02;137330;1275;22604;-85
2023/07/08 13:29:25;;;;;;;4.50;2.10;;;;;;;31.85;24.83;99315.94;137308;1275;23139;-84
2023/07/08 14:03:19;;;;;;;2.30;2.10;;;;;;;31.90;23.39;99301.56;133516;1298;544816;-86
2023/07/08 14:06:22;;;;;;;5.90;2.70;;;;;;;31.95;23.94;99296.55;135739;1288;22345;-85
2023/07/08 14:09:24;;;;;;;2.70;2.50;;;;;;;32.17;23.68;99292.00;136125;1288;22563;-85
2023/07/08 14:12:26;;;;;;;2.60;2.20;;;;;;;32.29;23.25;99292.06;135932;1288;22230;-84
2023/07/08 14:15:29;;;;;;;2.50;2.20;;;;;;;32.27;23.18;99283.17;135520;1285;156821;-85
2023/07/08 14:18:31;;;;;;;4.10;2.40;;;;;;;32.25;23.37;99283.31;136079;1286;22888;-87
2023/07/08 14:21:34;;;;;;;13.20;2.60;;;;;;;32.24;23.24;99280.69;136290;1284;22375;-85
2023/07/08 14:24:36;;;;;;;3.30;2.50;;;;;;;32.33;23.78;99281.51;135773;1286;22332;-84
2023/07/08 14:27:39;;;;;;;2.60;2.30;;;;;;;32.37;23.63;99281.42;135881;1286;22546;-82
2023/07/08 14:34:21;;;;;;;3.00;2.50;;;;;;;31.92;23.31;99276.43;136676;1276;22649;-84
2023/07/08 14:37:24;;;;;;;4.00;2.60;;;;;;;31.86;23.96;99270.73;136546;1276;22364;-84
2023/07/08 14:40:26;;;;;;;5.50;4.30;;;;;;;31.95;23.61;99272.20;136880;1276;22538;-83
2023/07/08 14:43:29;;;;;;;5.00;4.10;;;;;;;31.71;23.13;99271.36;136985;1276;22759;-83
2023/07/08 14:46:31;;;;;;;4.00;3.70;;;;;;;31.60;23.59;99267.57;136642;1276;22227;-84
2023/07/08 14:49:34;;;;;;;3.30;2.60;;;;;;;31.65;23.22;99267.79;136717;1276;22638;-83
2023/07/08 14:52:36;;;;;;;4.70;2.60;;;;;;;31.69;23.63;99261.04;137211;1276;22555;-85
2023/07/08 14:55:39;;;;;;;3.40;2.30;;;;;;;31.76;23.43;99260.80;136675;1276;22203;-84
2023/07/08 14:58:41;;;;;;;7.20;2.80;;;;;;;31.58;23.30;99258.54;136539;1276;22203;-83
2023/07/08 15:01:44;;;;;;;2.90;2.60;;;;;;;31.72;23.44;99251.31;137228;1276;22185;-84
2023/07/08 15:04:46;;;;;;;2.50;2.30;;;;;;;31.92;23.66;99251.77;137234;1276;22423;-84
2023/07/08 15:07:49;;;;;;;3.50;2.70;;;;;;;32.03;23.44;99251.72;137239;1276;22391;-84